Avoca, PA (18641)

8:43 AM EST on February 10, 2016 (GMT -0500)
West Wyoming | | Change Station
CLOSE
Current Station
Personal Weather Station
Location: Wyoming, PA
Elevation: 745 ft
Nearby Weather Stations

Elev 745 ft 41.32 °N, 75.85 °W | Updated 14 minutes ago

Overcast
Overcast
28.8 °F
Feels Like 29 °F
N
0.0
Wind Variable Wind from South

Today
High -- | Low -- °F
--% Chance of Precip.
Yesterday
High -- | Low -- °F
Precip. -- in
Pressure 29.62 in
Visibility 7.0 miles
Clouds Overcast 4300 ft
Windchill 29 °F
Dew Point 28 °F
Humidity 95%
Rainfall 0.00 in
Snow Depth Not available.
7:05 AM 5:30 PM
Waxing Crescent, 5% visible
METAR KAVP 101254Z AUTO 24006KT 7SM OVC043 M02/M04 A2959 RMK AO2 SLP029 T10221044
Pressure 29.62 in
Visibility 7.0 miles
Clouds Overcast 4300 ft
Windchill 29 °F
Dew Point 28 °F
Humidity 95%
Rainfall 0.00 in
Snow Depth Not available.
7:05 AM 5:30 PM
Waxing Crescent, 5% visible
METAR KAVP 101254Z AUTO 24006KT 7SM OVC043 M02/M04 A2959 RMK AO2 SLP029 T10221044

10-Day Weather Forecast

Almanac

Astronomy

Feb. 10, 2016 Rise Set
Actual Time
Civil Twilight
Nautical Twilight
Astronomical Twilight
Moon
Length of Visible Light
Length of Day
Tomorrow will be .
, % of the Moon is Illuminated

Today's Extremes

State Highs State Lows

Community

WunderPhotos

Upload Photos

1,891,845 photos uploaded!

WunderBlog® & News

Nearby

Air Quality

  Air Quality AQ Index Pollutant
Not available.

Snow Depth

Station Depth Elevation

Earthquake Activity

City Distance Mag. Time & Date
Minimum magnitude displayed is 2.5.

Coastal Water Temperatures

Place Temperature

Stations

Nearby Weather Stations

Station Location Temp. Windchill Dew Point Humidity Wind Precip. Elev Updated Type
                   

Watches & Warnings

There are currently no watches in effect.